»·PEaware :: SWA1861 KSAN-KPHX

SWA1861 :: KSAN-KPHX

FLIGHT INFORMATION

Flight Status: Arrived
Operator:
Southwest Airlines
More flights by this operator :: More flights under this callsign
Pilot: Marcelo T. (6927)
Aircraft: BOEING 737-700
(B737)
More flights by this aircraft type
Origin: KSAN San Diego Intl-Lindbergh
United States
Destination: KPHX Phoenix Sky Harbor Intl
United States
More flights between these airports :: More routes between these airports
Route: +ZZOOO1 IPL J18 BZA J2 HOGGZ HYDRR1
File this flight plan on PilotEdge
Remarks: PBN / A1D1O1S2T1 NAV / RNVD1E1A1 RNP10 DAT / 1FANSP2PDC DOF / 170214 REG / N737JW EET / KZAB0028
Altitude:
(Current/Filed)
F270
Speed:
(Current/Filed)
420kts
Departed: 14-Feb-17 03:29 PM
Arrived: 14-Feb-17 04:20 PM
Distance/Time
Traveled:
264nm/0:51
Distance/Time
To Go:
Arrived

Flight Plot

Page will automatically refresh every two minutes.

Flight plan parsing failed; only flown route is shown


Map Options




Map Legend


Flown Route
Filed Route
Departure Airport
Arrival Airport
Navaid (VOR, NDB)
Fix

Horizontal Profiles

Position Reports

Time Latitude Longitude Heading Altitude Ground
Speed
14-Feb-17 14:56 32.732885 -117.195536 274 22ft 0kts
14-Feb-17 14:57 32.732885 -117.195536 274 22ft 0kts
14-Feb-17 14:58 32.732885 -117.195536 274 22ft 0kts
14-Feb-17 14:59 32.732885 -117.195536 274 22ft 0kts
14-Feb-17 15:00 32.732885 -117.195536 274 22ft 0kts
14-Feb-17 15:01 32.732885 -117.195536 274 22ft 0kts
14-Feb-17 15:02 32.732885 -117.195536 274 22ft 0kts
14-Feb-17 15:03 32.732885 -117.195536 274 22ft 0kts
14-Feb-17 15:04 32.732885 -117.195536 274 22ft 0kts
14-Feb-17 15:05 32.732885 -117.195536 274 22ft 0kts
14-Feb-17 15:06 32.732885 -117.195536 274 22ft 0kts
14-Feb-17 15:07 32.732885 -117.195536 274 22ft 0kts
14-Feb-17 15:08 32.732885 -117.195536 274 22ft 0kts
14-Feb-17 15:09 32.732885 -117.195536 274 22ft 0kts
14-Feb-17 15:10 32.732885 -117.195536 274 22ft 0kts
14-Feb-17 15:11 32.732885 -117.195536 274 22ft 0kts
14-Feb-17 15:12 32.732885 -117.195536 274 22ft 0kts
14-Feb-17 15:13 32.732885 -117.195536 274 22ft 0kts
14-Feb-17 15:14 32.732885 -117.195536 274 22ft 0kts
14-Feb-17 15:15 32.732885 -117.195536 274 22ft 0kts
14-Feb-17 15:16 32.732841 -117.195123 281 22ft 2kts
14-Feb-17 15:17 32.732523 -117.194697 27 22ft 2kts
14-Feb-17 15:18 32.732456 -117.194739 27 22ft 0kts
14-Feb-17 15:19 32.732456 -117.194739 27 22ft 0kts
14-Feb-17 15:20 32.732456 -117.194739 27 22ft 0kts
14-Feb-17 15:21 32.732456 -117.194739 27 22ft 0kts
14-Feb-17 15:22 32.733233 -117.194196 44 22ft 13kts
14-Feb-17 15:23 32.732587 -117.189961 105 22ft 18kts
14-Feb-17 15:24 32.731060 -117.183667 105 22ft 15kts
14-Feb-17 15:25 32.729783 -117.178389 106 22ft 13kts
14-Feb-17 15:26 32.729523 -117.176707 70 22ft 0kts
14-Feb-17 15:27 32.729530 -117.176685 70 22ft 1kts
14-Feb-17 15:28 32.730289 -117.176120 284 22ft 16kts
14-Feb-17 15:29 32.738607 -117.210965 284 777ft 157kts
14-Feb-17 15:30 32.751990 -117.268324 284 2567ft 211kts
14-Feb-17 15:31 32.718063 -117.314319 173 4941ft 256kts
14-Feb-17 15:32 32.662490 -117.271560 140 7392ft 284kts
14-Feb-17 15:33 32.622857 -117.193193 91 10678ft 299kts
14-Feb-17 15:34 32.616601 -117.082296 92 12633ft 363kts
14-Feb-17 15:35 32.605749 -116.959186 93 15809ft 386kts
14-Feb-17 15:36 32.618280 -116.832045 71 18890ft 397kts
14-Feb-17 15:37 32.638726 -116.699539 79 21642ft 421kts
14-Feb-17 15:38 32.651338 -116.558609 79 23079ft 434kts
14-Feb-17 15:39 32.664713 -116.416090 79 23080ft 433kts
14-Feb-17 15:40 32.678714 -116.273550 79 23802ft 440kts
14-Feb-17 15:41 32.692352 -116.127463 79 26039ft 452kts
14-Feb-17 15:42 32.704410 -115.997252 79 27067ft 453kts
14-Feb-17 15:43 32.718202 -115.849092 79 27069ft 450kts
14-Feb-17 15:44 32.731740 -115.701431 79 27069ft 450kts
14-Feb-17 15:45 32.744909 -115.553607 79 27058ft 451kts
14-Feb-17 15:46 32.752193 -115.404721 85 27056ft 453kts
14-Feb-17 15:47 32.755212 -115.254758 84 27065ft 453kts
14-Feb-17 15:48 32.758304 -115.105212 85 27065ft 453kts
14-Feb-17 15:49 32.761491 -114.955692 85 27061ft 453kts
14-Feb-17 15:50 32.764519 -114.806040 85 27055ft 454kts
14-Feb-17 15:51 32.767173 -114.656227 85 27052ft 454kts
14-Feb-17 15:52 32.769190 -114.525204 86 27051ft 454kts
14-Feb-17 15:53 32.771407 -114.377146 86 26638ft 443kts
14-Feb-17 15:54 32.773186 -114.232681 86 25538ft 434kts
14-Feb-17 15:55 32.774672 -114.091645 86 23785ft 415kts
14-Feb-17 15:56 32.787017 -113.955796 79 23060ft 412kts
14-Feb-17 15:57 32.801993 -113.823004 79 21462ft 398kts
14-Feb-17 15:58 32.820596 -113.695990 63 20559ft 387kts
14-Feb-17 15:59 32.884294 -113.596977 45 19711ft 374kts
14-Feb-17 16:00 32.953013 -113.504928 45 18896ft 368kts
14-Feb-17 16:01 33.020095 -113.414229 46 18097ft 362kts
14-Feb-17 16:02 33.073202 -113.342507 46 17425ft 358kts
14-Feb-17 16:03 33.138874 -113.253881 46 16636ft 353kts
14-Feb-17 16:04 33.203228 -113.166467 46 15867ft 348kts
14-Feb-17 16:05 33.264787 -113.078317 60 15104ft 344kts
14-Feb-17 16:06 33.277405 -112.967930 86 13718ft 330kts
14-Feb-17 16:07 33.279601 -112.860738 86 12348ft 315kts
14-Feb-17 16:08 33.301253 -112.765296 63 11008ft 289kts
14-Feb-17 16:09 33.333120 -112.681430 63 10045ft 266kts
14-Feb-17 16:10 33.363490 -112.601999 64 9089ft 261kts
14-Feb-17 16:11 33.393106 -112.524147 64 8259ft 246kts
14-Feb-17 16:12 33.415984 -112.460991 66 7476ft 231kts
14-Feb-17 16:13 33.429269 -112.386876 88 6461ft 229kts
14-Feb-17 16:14 33.428673 -112.311253 88 5389ft 223kts
14-Feb-17 16:15 33.428804 -112.238593 88 4383ft 212kts
14-Feb-17 16:16 33.428933 -112.170712 88 3463ft 194kts
14-Feb-17 16:17 33.428819 -112.109407 88 2593ft 170kts
14-Feb-17 16:18 33.428888 -112.059042 88 1681ft 138kts
14-Feb-17 16:19 33.428829 -112.013325 90 1143ft 88kts
14-Feb-17 16:20 33.429813 -112.004406 63 1143ft 5kts
14-Feb-17 16:21 33.430056 -112.003364 40 1143ft 0kts
14-Feb-17 16:22 33.432048 -112.003470 318 1143ft 9kts
14-Feb-17 16:23 33.432846 -112.000803 89 1143ft 12kts
14-Feb-17 16:24 33.432842 -111.996501 89 1143ft 13kts
14-Feb-17 16:25 33.433842 -111.995733 335 1143ft 4kts
14-Feb-17 16:26 33.434049 -111.996099 294 1143ft 0kts
14-Feb-17 16:27 33.434049 -111.996099 294 1143ft 0kts
14-Feb-17 16:28 33.434049 -111.996099 294 1143ft 0kts

Navigation Log

Ident Type
Flight plan parsing failed, navigation log unavailable